sensor_id;sensor_type;location;lat;lon;timestamp;P1;durP1;ratioP1;P2;durP2;ratioP2
55756;SDS011;41676;44.610;44.078;2022-11-24T00:01:44;6.22;;;3.33;;
55756;SDS011;41676;44.610;44.078;2022-11-24T00:06:45;12.23;;;3.75;;
55756;SDS011;41676;44.610;44.078;2022-11-24T00:11:46;5.93;;;2.97;;
55756;SDS011;41676;44.610;44.078;2022-11-24T00:16:47;6.35;;;3.03;;
55756;SDS011;41676;44.610;44.078;2022-11-24T00:21:48;7.85;;;2.38;;
55756;SDS011;41676;44.610;44.078;2022-11-24T00:26:49;7.10;;;2.72;;
55756;SDS011;41676;44.610;44.078;2022-11-24T00:31:49;5.47;;;2.80;;
55756;SDS011;41676;44.610;44.078;2022-11-24T00:36:50;3.90;;;2.33;;
55756;SDS011;41676;44.610;44.078;2022-11-24T00:41:51;10.35;;;3.35;;
55756;SDS011;41676;44.610;44.078;2022-11-24T00:46:52;5.63;;;2.83;;
55756;SDS011;41676;44.610;44.078;2022-11-24T00:57:28;7.20;;;3.25;;
55756;SDS011;41676;44.610;44.078;2022-11-24T01:02:29;6.95;;;3.38;;
55756;SDS011;41676;44.610;44.078;2022-11-24T01:07:30;5.30;;;2.90;;
55756;SDS011;41676;44.610;44.078;2022-11-24T01:12:31;6.47;;;3.10;;
55756;SDS011;41676;44.610;44.078;2022-11-24T01:23:40;9.52;;;3.30;;
55756;SDS011;41676;44.610;44.078;2022-11-24T01:28:41;8.15;;;3.35;;
55756;SDS011;41676;44.610;44.078;2022-11-24T01:33:43;8.00;;;3.15;;
55756;SDS011;41676;44.610;44.078;2022-11-24T01:38:44;9.15;;;3.35;;
55756;SDS011;41676;44.610;44.078;2022-11-24T01:55:16;8.65;;;4.03;;
55756;SDS011;41676;44.610;44.078;2022-11-24T02:00:22;13.30;;;6.38;;
55756;SDS011;41676;44.610;44.078;2022-11-24T02:05:25;24.80;;;7.63;;
55756;SDS011;41676;44.610;44.078;2022-11-24T02:10:36;17.73;;;7.63;;
55756;SDS011;41676;44.610;44.078;2022-11-24T02:15:38;14.80;;;8.25;;
55756;SDS011;41676;44.610;44.078;2022-11-24T02:20:39;37.58;;;27.52;;
55756;SDS011;41676;44.610;44.078;2022-11-24T02:31:13;16.70;;;8.17;;
55756;SDS011;41676;44.610;44.078;2022-11-24T02:36:14;12.90;;;7.25;;
55756;SDS011;41676;44.610;44.078;2022-11-24T02:41:18;10.55;;;5.85;;
55756;SDS011;41676;44.610;44.078;2022-11-24T02:46:21;19.23;;;5.78;;
55756;SDS011;41676;44.610;44.078;2022-11-24T02:51:22;8.23;;;4.50;;
55756;SDS011;41676;44.610;44.078;2022-11-24T02:56:24;14.40;;;5.13;;
55756;SDS011;41676;44.610;44.078;2022-11-24T03:01:25;7.47;;;4.28;;
55756;SDS011;41676;44.610;44.078;2022-11-24T03:06:26;10.95;;;4.65;;
55756;SDS011;41676;44.610;44.078;2022-11-24T03:11:27;8.23;;;4.53;;
55756;SDS011;41676;44.610;44.078;2022-11-24T03:16:28;7.82;;;4.10;;
55756;SDS011;41676;44.610;44.078;2022-11-24T03:21:29;11.00;;;4.45;;
55756;SDS011;41676;44.610;44.078;2022-11-24T03:26:32;10.05;;;5.57;;
55756;SDS011;41676;44.610;44.078;2022-11-24T03:36:48;7.88;;;4.63;;
55756;SDS011;41676;44.610;44.078;2022-11-24T03:41:49;6.82;;;3.97;;
55756;SDS011;41676;44.610;44.078;2022-11-24T03:46:50;11.75;;;4.40;;
55756;SDS011;41676;44.610;44.078;2022-11-24T03:51:51;7.38;;;3.85;;
55756;SDS011;41676;44.610;44.078;2022-11-24T03:56:52;7.28;;;4.07;;
55756;SDS011;41676;44.610;44.078;2022-11-24T04:07:42;7.13;;;4.28;;
55756;SDS011;41676;44.610;44.078;2022-11-24T04:18:27;7.90;;;4.53;;
55756;SDS011;41676;44.610;44.078;2022-11-24T04:23:28;10.82;;;4.07;;
55756;SDS011;41676;44.610;44.078;2022-11-24T04:28:29;11.10;;;4.75;;
55756;SDS011;41676;44.610;44.078;2022-11-24T04:33:30;16.92;;;4.90;;
55756;SDS011;41676;44.610;44.078;2022-11-24T04:38:31;14.20;;;8.35;;
55756;SDS011;41676;44.610;44.078;2022-11-24T04:43:32;19.73;;;7.20;;
55756;SDS011;41676;44.610;44.078;2022-11-24T04:48:33;9.68;;;5.57;;
55756;SDS011;41676;44.610;44.078;2022-11-24T04:53:33;9.27;;;5.22;;
55756;SDS011;41676;44.610;44.078;2022-11-24T04:58:34;7.43;;;4.93;;
55756;SDS011;41676;44.610;44.078;2022-11-24T05:03:35;9.32;;;4.57;;
55756;SDS011;41676;44.610;44.078;2022-11-24T05:08:36;5.90;;;4.60;;
55756;SDS011;41676;44.610;44.078;2022-11-24T05:13:37;9.90;;;4.78;;
55756;SDS011;41676;44.610;44.078;2022-11-24T05:18:38;7.93;;;3.70;;
55756;SDS011;41676;44.610;44.078;2022-11-24T05:23:39;10.25;;;4.15;;
55756;SDS011;41676;44.610;44.078;2022-11-24T05:28:40;8.38;;;4.68;;
55756;SDS011;41676;44.610;44.078;2022-11-24T05:33:41;9.70;;;4.82;;
55756;SDS011;41676;44.610;44.078;2022-11-24T05:38:42;10.90;;;5.70;;
55756;SDS011;41676;44.610;44.078;2022-11-24T05:43:43;12.45;;;4.38;;
55756;SDS011;41676;44.610;44.078;2022-11-24T05:48:43;7.85;;;3.88;;
55756;SDS011;41676;44.610;44.078;2022-11-24T05:53:44;10.63;;;4.50;;
55756;SDS011;41676;44.610;44.078;2022-11-24T05:58:45;8.02;;;4.75;;
55756;SDS011;41676;44.610;44.078;2022-11-24T06:03:46;10.43;;;4.97;;
55756;SDS011;41676;44.610;44.078;2022-11-24T06:08:52;7.85;;;4.28;;
55756;SDS011;41676;44.610;44.078;2022-11-24T06:13:53;10.32;;;5.10;;
55756;SDS011;41676;44.610;44.078;2022-11-24T06:18:54;8.77;;;4.97;;
55756;SDS011;41676;44.610;44.078;2022-11-24T06:23:55;7.07;;;3.60;;
55756;SDS011;41676;44.610;44.078;2022-11-24T06:28:57;7.38;;;4.03;;
55756;SDS011;41676;44.610;44.078;2022-11-24T06:33:58;7.18;;;4.80;;
55756;SDS011;41676;44.610;44.078;2022-11-24T06:39:00;11.90;;;5.53;;
55756;SDS011;41676;44.610;44.078;2022-11-24T06:44:02;27.48;;;9.05;;
55756;SDS011;41676;44.610;44.078;2022-11-24T06:49:04;11.20;;;5.90;;
55756;SDS011;41676;44.610;44.078;2022-11-24T06:54:05;7.05;;;4.72;;
55756;SDS011;41676;44.610;44.078;2022-11-24T06:59:06;8.60;;;4.13;;
55756;SDS011;41676;44.610;44.078;2022-11-24T07:04:07;12.70;;;4.35;;
55756;SDS011;41676;44.610;44.078;2022-11-24T07:09:08;8.88;;;4.20;;
55756;SDS011;41676;44.610;44.078;2022-11-24T07:14:10;11.00;;;3.65;;
55756;SDS011;41676;44.610;44.078;2022-11-24T07:19:11;18.20;;;7.95;;
55756;SDS011;41676;44.610;44.078;2022-11-24T07:24:11;13.63;;;6.82;;
55756;SDS011;41676;44.610;44.078;2022-11-24T07:29:12;15.75;;;7.93;;
55756;SDS011;41676;44.610;44.078;2022-11-24T07:34:13;26.55;;;12.10;;
55756;SDS011;41676;44.610;44.078;2022-11-24T07:39:14;25.52;;;12.70;;
55756;SDS011;41676;44.610;44.078;2022-11-24T07:44:14;17.80;;;8.73;;
55756;SDS011;41676;44.610;44.078;2022-11-24T07:49:15;8.00;;;5.03;;
55756;SDS011;41676;44.610;44.078;2022-11-24T07:54:17;18.45;;;7.82;;
55756;SDS011;41676;44.610;44.078;2022-11-24T07:59:17;12.80;;;5.00;;
55756;SDS011;41676;44.610;44.078;2022-11-24T08:04:18;3.92;;;1.90;;
55756;SDS011;41676;44.610;44.078;2022-11-24T08:09:19;4.75;;;1.80;;
55756;SDS011;41676;44.610;44.078;2022-11-24T08:14:20;6.55;;;1.73;;
55756;SDS011;41676;44.610;44.078;2022-11-24T08:19:20;4.90;;;2.20;;
55756;SDS011;41676;44.610;44.078;2022-11-24T08:24:21;6.53;;;2.13;;
55756;SDS011;41676;44.610;44.078;2022-11-24T08:29:27;6.72;;;2.10;;
55756;SDS011;41676;44.610;44.078;2022-11-24T08:34:29;3.45;;;1.52;;
55756;SDS011;41676;44.610;44.078;2022-11-24T08:39:30;4.60;;;1.48;;
55756;SDS011;41676;44.610;44.078;2022-11-24T08:44:31;7.95;;;2.17;;
55756;SDS011;41676;44.610;44.078;2022-11-24T08:49:33;6.75;;;2.25;;
55756;SDS011;41676;44.610;44.078;2022-11-24T08:54:41;4.85;;;1.65;;
55756;SDS011;41676;44.610;44.078;2022-11-24T08:59:43;4.47;;;1.80;;
55756;SDS011;41676;44.610;44.078;2022-11-24T09:04:45;6.10;;;2.65;;
55756;SDS011;41676;44.610;44.078;2022-11-24T09:09:46;6.50;;;2.15;;
55756;SDS011;41676;44.610;44.078;2022-11-24T09:14:47;6.35;;;1.92;;
55756;SDS011;41676;44.610;44.078;2022-11-24T09:19:48;6.38;;;1.75;;
55756;SDS011;41676;44.610;44.078;2022-11-24T09:24:49;5.43;;;2.45;;
55756;SDS011;41676;44.610;44.078;2022-11-24T09:29:49;5.90;;;1.88;;
55756;SDS011;41676;44.610;44.078;2022-11-24T09:34:51;6.15;;;2.30;;
55756;SDS011;41676;44.610;44.078;2022-11-24T09:39:52;5.13;;;2.40;;
55756;SDS011;41676;44.610;44.078;2022-11-24T09:45:08;5.68;;;2.08;;
55756;SDS011;41676;44.610;44.078;2022-11-24T09:55:24;4.82;;;2.58;;
55756;SDS011;41676;44.610;44.078;2022-11-24T10:00:38;5.30;;;2.15;;
55756;SDS011;41676;44.610;44.078;2022-11-24T10:05:40;6.57;;;2.65;;
55756;SDS011;41676;44.610;44.078;2022-11-24T10:11:01;5.88;;;2.63;;
55756;SDS011;41676;44.610;44.078;2022-11-24T10:16:25;4.25;;;2.08;;
55756;SDS011;41676;44.610;44.078;2022-11-24T10:21:42;16.75;;;7.28;;
55756;SDS011;41676;44.610;44.078;2022-11-24T10:27:17;15.02;;;6.35;;
55756;SDS011;41676;44.610;44.078;2022-11-24T10:32:29;10.27;;;3.15;;
55756;SDS011;41676;44.610;44.078;2022-11-24T10:37:36;16.83;;;4.63;;
55756;SDS011;41676;44.610;44.078;2022-11-24T10:42:42;64.13;;;27.98;;
55756;SDS011;41676;44.610;44.078;2022-11-24T10:47:44;44.42;;;17.85;;
55756;SDS011;41676;44.610;44.078;2022-11-24T10:52:46;14.88;;;4.07;;
55756;SDS011;41676;44.610;44.078;2022-11-24T10:58:12;13.85;;;4.68;;
55756;SDS011;41676;44.610;44.078;2022-11-24T11:03:16;8.05;;;3.00;;
55756;SDS011;41676;44.610;44.078;2022-11-24T11:08:20;156.38;;;73.32;;
55756;SDS011;41676;44.610;44.078;2022-11-24T11:13:29;224.95;;;106.50;;
55756;SDS011;41676;44.610;44.078;2022-11-24T11:18:31;18.25;;;9.70;;
55756;SDS011;41676;44.610;44.078;2022-11-24T11:23:33;10.45;;;4.97;;
55756;SDS011;41676;44.610;44.078;2022-11-24T11:28:35;16.17;;;6.05;;
55756;SDS011;41676;44.610;44.078;2022-11-24T11:33:36;19.65;;;8.45;;
55756;SDS011;41676;44.610;44.078;2022-11-24T11:38:37;105.75;;;44.97;;
55756;SDS011;41676;44.610;44.078;2022-11-24T11:43:39;13.63;;;5.93;;
55756;SDS011;41676;44.610;44.078;2022-11-24T11:48:42;67.57;;;25.30;;
55756;SDS011;41676;44.610;44.078;2022-11-24T11:59:36;23.20;;;10.18;;
55756;SDS011;41676;44.610;44.078;2022-11-24T12:04:49;18.30;;;5.63;;
55756;SDS011;41676;44.610;44.078;2022-11-24T12:26:04;10.00;;;2.30;;
55756;SDS011;41676;44.610;44.078;2022-11-24T12:37:39;9.63;;;2.50;;
55756;SDS011;41676;44.610;44.078;2022-11-24T12:48:26;16.95;;;6.82;;
55756;SDS011;41676;44.610;44.078;2022-11-24T12:53:34;8.40;;;2.60;;
55756;SDS011;41676;44.610;44.078;2022-11-24T13:08:51;29.70;;;8.88;;
55756;SDS011;41676;44.610;44.078;2022-11-24T13:41:03;393.02;;;154.02;;
55756;SDS011;41676;44.610;44.078;2022-11-24T13:46:07;319.07;;;125.13;;
55756;SDS011;41676;44.610;44.078;2022-11-24T13:51:13;141.10;;;56.63;;
55756;SDS011;41676;44.610;44.078;2022-11-24T14:01:32;147.82;;;58.10;;
55756;SDS011;41676;44.610;44.078;2022-11-24T14:06:46;72.25;;;32.88;;
55756;SDS011;41676;44.610;44.078;2022-11-24T14:11:58;48.28;;;22.98;;
55756;SDS011;41676;44.610;44.078;2022-11-24T14:22:14;72.03;;;26.88;;
55756;SDS011;41676;44.610;44.078;2022-11-24T14:27:19;75.80;;;30.70;;
55756;SDS011;41676;44.610;44.078;2022-11-24T14:32:25;41.95;;;19.30;;
55756;SDS011;41676;44.610;44.078;2022-11-24T14:37:26;20.73;;;10.05;;
55756;SDS011;41676;44.610;44.078;2022-11-24T14:42:27;23.30;;;8.60;;
55756;SDS011;41676;44.610;44.078;2022-11-24T14:53:07;19.17;;;8.07;;
55756;SDS011;41676;44.610;44.078;2022-11-24T15:04:11;71.13;;;23.60;;
55756;SDS011;41676;44.610;44.078;2022-11-24T15:09:21;79.47;;;36.88;;
55756;SDS011;41676;44.610;44.078;2022-11-24T15:19:33;39.13;;;15.03;;
55756;SDS011;41676;44.610;44.078;2022-11-24T15:24:47;18.73;;;6.75;;
55756;SDS011;41676;44.610;44.078;2022-11-24T15:29:49;15.88;;;5.05;;
55756;SDS011;41676;44.610;44.078;2022-11-24T15:34:50;18.30;;;8.13;;
55756;SDS011;41676;44.610;44.078;2022-11-24T15:39:50;24.17;;;9.73;;
55756;SDS011;41676;44.610;44.078;2022-11-24T15:44:52;20.52;;;8.23;;
55756;SDS011;41676;44.610;44.078;2022-11-24T15:49:53;20.95;;;9.07;;
55756;SDS011;41676;44.610;44.078;2022-11-24T15:54:54;34.22;;;11.48;;
55756;SDS011;41676;44.610;44.078;2022-11-24T15:59:56;33.22;;;13.00;;
55756;SDS011;41676;44.610;44.078;2022-11-24T16:04:56;18.52;;;7.85;;
55756;SDS011;41676;44.610;44.078;2022-11-24T16:09:57;14.48;;;6.43;;
55756;SDS011;41676;44.610;44.078;2022-11-24T16:14:58;17.67;;;7.80;;
55756;SDS011;41676;44.610;44.078;2022-11-24T16:19:59;13.63;;;4.85;;
55756;SDS011;41676;44.610;44.078;2022-11-24T16:25:00;8.15;;;3.67;;
55756;SDS011;41676;44.610;44.078;2022-11-24T16:30:03;20.75;;;9.60;;
55756;SDS011;41676;44.610;44.078;2022-11-24T16:35:05;23.20;;;6.32;;
55756;SDS011;41676;44.610;44.078;2022-11-24T16:40:06;20.35;;;7.70;;
55756;SDS011;41676;44.610;44.078;2022-11-24T16:45:09;19.95;;;7.65;;
55756;SDS011;41676;44.610;44.078;2022-11-24T16:50:12;10.23;;;3.13;;
55756;SDS011;41676;44.610;44.078;2022-11-24T16:55:12;10.02;;;3.08;;
55756;SDS011;41676;44.610;44.078;2022-11-24T17:00:13;10.35;;;2.55;;
55756;SDS011;41676;44.610;44.078;2022-11-24T17:05:15;10.00;;;2.67;;
55756;SDS011;41676;44.610;44.078;2022-11-24T17:10:15;8.15;;;2.20;;
55756;SDS011;41676;44.610;44.078;2022-11-24T17:21:08;8.60;;;2.10;;
55756;SDS011;41676;44.610;44.078;2022-11-24T17:31:18;10.23;;;2.58;;
55756;SDS011;41676;44.610;44.078;2022-11-24T17:36:21;7.65;;;2.88;;
55756;SDS011;41676;44.610;44.078;2022-11-24T17:41:22;8.25;;;3.60;;
55756;SDS011;41676;44.610;44.078;2022-11-24T17:46:23;12.77;;;3.60;;
55756;SDS011;41676;44.610;44.078;2022-11-24T17:57:41;9.73;;;3.95;;
55756;SDS011;41676;44.610;44.078;2022-11-24T18:02:41;9.57;;;3.35;;
55756;SDS011;41676;44.610;44.078;2022-11-24T18:07:42;10.30;;;3.92;;
55756;SDS011;41676;44.610;44.078;2022-11-24T18:12:43;9.40;;;3.97;;
55756;SDS011;41676;44.610;44.078;2022-11-24T18:17:44;10.05;;;3.95;;
55756;SDS011;41676;44.610;44.078;2022-11-24T18:22:45;11.43;;;4.80;;
55756;SDS011;41676;44.610;44.078;2022-11-24T18:27:46;18.48;;;5.70;;
55756;SDS011;41676;44.610;44.078;2022-11-24T18:32:47;22.15;;;5.93;;
55756;SDS011;41676;44.610;44.078;2022-11-24T18:37:48;15.38;;;5.50;;
55756;SDS011;41676;44.610;44.078;2022-11-24T18:42:48;16.33;;;4.70;;
55756;SDS011;41676;44.610;44.078;2022-11-24T18:47:49;10.93;;;5.30;;
55756;SDS011;41676;44.610;44.078;2022-11-24T18:52:51;24.05;;;5.70;;
55756;SDS011;41676;44.610;44.078;2022-11-24T18:57:52;26.02;;;4.88;;
55756;SDS011;41676;44.610;44.078;2022-11-24T19:02:53;21.50;;;5.65;;
55756;SDS011;41676;44.610;44.078;2022-11-24T19:07:54;24.15;;;6.03;;
55756;SDS011;41676;44.610;44.078;2022-11-24T19:12:55;19.75;;;5.57;;
55756;SDS011;41676;44.610;44.078;2022-11-24T19:28:40;20.60;;;5.03;;
55756;SDS011;41676;44.610;44.078;2022-11-24T19:33:41;20.13;;;4.18;;
55756;SDS011;41676;44.610;44.078;2022-11-24T19:38:46;17.08;;;4.10;;
55756;SDS011;41676;44.610;44.078;2022-11-24T19:43:50;17.40;;;4.20;;
55756;SDS011;41676;44.610;44.078;2022-11-24T19:48:54;15.13;;;4.10;;
55756;SDS011;41676;44.610;44.078;2022-11-24T19:53:58;12.03;;;4.23;;
55756;SDS011;41676;44.610;44.078;2022-11-24T20:05:15;8.30;;;3.75;;
55756;SDS011;41676;44.610;44.078;2022-11-24T20:10:16;7.70;;;3.67;;
55756;SDS011;41676;44.610;44.078;2022-11-24T20:15:16;9.35;;;3.90;;
55756;SDS011;41676;44.610;44.078;2022-11-24T20:20:18;9.55;;;4.40;;
55756;SDS011;41676;44.610;44.078;2022-11-24T20:25:18;10.60;;;5.00;;
55756;SDS011;41676;44.610;44.078;2022-11-24T20:30:19;11.25;;;5.72;;
55756;SDS011;41676;44.610;44.078;2022-11-24T20:35:20;12.38;;;5.32;;
55756;SDS011;41676;44.610;44.078;2022-11-24T20:40:21;13.93;;;6.85;;
55756;SDS011;41676;44.610;44.078;2022-11-24T20:45:22;13.57;;;6.95;;
55756;SDS011;41676;44.610;44.078;2022-11-24T20:50:22;16.13;;;7.55;;
55756;SDS011;41676;44.610;44.078;2022-11-24T20:55:23;12.57;;;7.38;;
55756;SDS011;41676;44.610;44.078;2022-11-24T21:00:24;17.73;;;8.20;;
55756;SDS011;41676;44.610;44.078;2022-11-24T21:05:25;16.75;;;8.35;;
55756;SDS011;41676;44.610;44.078;2022-11-24T21:10:25;17.75;;;8.18;;
55756;SDS011;41676;44.610;44.078;2022-11-24T21:15:27;16.77;;;8.05;;
55756;SDS011;41676;44.610;44.078;2022-11-24T21:20:28;14.30;;;7.70;;
55756;SDS011;41676;44.610;44.078;2022-11-24T21:25:29;15.70;;;7.95;;
55756;SDS011;41676;44.610;44.078;2022-11-24T21:30:31;23.38;;;10.20;;
55756;SDS011;41676;44.610;44.078;2022-11-24T21:35:34;15.98;;;9.80;;
55756;SDS011;41676;44.610;44.078;2022-11-24T21:40:35;21.88;;;10.07;;
55756;SDS011;41676;44.610;44.078;2022-11-24T21:45:36;20.20;;;9.38;;
55756;SDS011;41676;44.610;44.078;2022-11-24T21:50:37;14.60;;;9.07;;
55756;SDS011;41676;44.610;44.078;2022-11-24T21:55:38;30.58;;;10.27;;
55756;SDS011;41676;44.610;44.078;2022-11-24T22:00:38;22.05;;;10.95;;
55756;SDS011;41676;44.610;44.078;2022-11-24T22:05:39;18.50;;;10.98;;
55756;SDS011;41676;44.610;44.078;2022-11-24T22:10:40;19.52;;;11.02;;
55756;SDS011;41676;44.610;44.078;2022-11-24T22:15:40;25.27;;;10.75;;
55756;SDS011;41676;44.610;44.078;2022-11-24T22:20:41;22.08;;;10.13;;
55756;SDS011;41676;44.610;44.078;2022-11-24T22:25:42;23.90;;;10.85;;
55756;SDS011;41676;44.610;44.078;2022-11-24T22:30:43;21.20;;;11.93;;
55756;SDS011;41676;44.610;44.078;2022-11-24T22:35:49;23.75;;;11.75;;
55756;SDS011;41676;44.610;44.078;2022-11-24T22:41:02;24.27;;;11.93;;
55756;SDS011;41676;44.610;44.078;2022-11-24T22:46:08;29.27;;;12.90;;
55756;SDS011;41676;44.610;44.078;2022-11-24T22:51:12;30.52;;;12.27;;
55756;SDS011;41676;44.610;44.078;2022-11-24T22:56:15;25.37;;;13.23;;
55756;SDS011;41676;44.610;44.078;2022-11-24T23:01:17;27.67;;;14.02;;
55756;SDS011;41676;44.610;44.078;2022-11-24T23:06:20;23.20;;;12.85;;
55756;SDS011;41676;44.610;44.078;2022-11-24T23:11:27;24.25;;;13.18;;
55756;SDS011;41676;44.610;44.078;2022-11-24T23:16:34;24.90;;;12.63;;
55756;SDS011;41676;44.610;44.078;2022-11-24T23:21:35;24.63;;;12.93;;
55756;SDS011;41676;44.610;44.078;2022-11-24T23:26:40;24.92;;;13.32;;
55756;SDS011;41676;44.610;44.078;2022-11-24T23:31:41;21.42;;;12.93;;
55756;SDS011;41676;44.610;44.078;2022-11-24T23:48:52;21.42;;;11.20;;
55756;SDS011;41676;44.610;44.078;2022-11-24T23:53:54;23.15;;;12.32;;
55756;SDS011;41676;44.610;44.078;2022-11-24T23:58:55;23.30;;;12.57;;
